Time;durP1;ratioP1;P1;durP2;ratioP2;P2;SDS_P1;SDS_P2;PMS_P1;PMS_P2;Temp;Humidity;BMP_temperature;BMP_pressure;BME280_temperature;BME280_humidity;BME280_pressure;Samples;Min_cycle;Max_cycle;Signal;HPM_P1;HPM_P2
2022/02/27 00:09:36;;;;;;;76.40;37.80;;;;;;;-4.00;76.82;101355.95;446528;1271;143052;-68
2022/02/27 00:19:42;;;;;;;70.30;37.10;;;;;;;-3.96;77.13;101358.95;447217;1271;143609;-67
2022/02/27 00:29:49;;;;;;;74.00;38.30;;;;;;;-3.99;77.01;101363.83;447044;1270;143756;-67
2022/02/27 00:39:56;;;;;;;63.30;36.20;;;;;;;-3.97;77.42;101370.89;446307;1271;142176;-67
2022/02/27 00:50:01;;;;;;;63.80;35.30;;;;;;;-3.93;77.73;101368.93;446992;1270;185990;-68
2022/02/27 01:00:09;;;;;;;50.60;27.60;;;;;;;-3.74;78.39;101371.26;446403;1271;143183;-67
2022/02/27 01:10:15;;;;;;;39.00;22.90;;;;;;;-3.19;79.58;101370.93;446714;1271;144267;-68
2022/02/27 01:20:21;;;;;;;41.30;23.00;;;;;;;-2.87;79.80;101363.17;446999;1271;143130;-68
2022/02/27 01:30:27;;;;;;;36.70;20.60;;;;;;;-2.75;80.06;101359.12;446357;1271;142850;-67
2022/02/27 01:40:33;;;;;;;31.50;17.80;;;;;;;-2.69;80.20;101362.00;443495;1271;144399;-67
2022/02/27 01:50:39;;;;;;;34.40;19.00;;;;;;;-2.36;80.95;101356.59;447282;1271;141700;-67
2022/02/27 02:00:45;;;;;;;30.10;18.70;;;;;;;-2.14;81.10;101349.92;446483;1271;143891;-67
2022/02/27 02:10:51;;;;;;;28.10;18.10;;;;;;;-1.95;81.64;101339.77;440234;1271;143835;-66
2022/02/27 02:20:56;;;;;;;26.40;15.70;;;;;;;-1.77;81.76;101334.38;447077;1271;142700;-68
2022/02/27 02:31:02;;;;;;;19.50;12.40;;;;;;;-1.74;81.84;101333.89;446541;1272;217438;-68
2022/02/27 02:41:08;;;;;;;23.10;14.10;;;;;;;-1.75;81.66;101339.55;446539;1273;143446;-65
2022/02/27 02:51:14;;;;;;;13.90;10.40;;;;;;;-1.75;82.05;101341.60;446498;1271;143240;-60
2022/02/27 03:01:22;;;;;;;17.70;13.10;;;;;;;-1.71;82.24;101348.20;447232;1271;142301;-60
2022/02/27 03:11:29;;;;;;;21.50;12.30;;;;;;;-1.64;82.30;101350.19;447222;1271;143276;-60
2022/02/27 03:21:35;;;;;;;20.40;12.30;;;;;;;-1.73;82.28;101352.45;446169;1272;143184;-64
2022/02/27 03:31:41;;;;;;;21.30;12.50;;;;;;;-1.87;82.03;101358.77;447064;1271;145327;-60
2022/02/27 03:41:48;;;;;;;26.20;13.80;;;;;;;-1.86;82.66;101370.12;447366;1270;143259;-60
2022/02/27 03:51:54;;;;;;;21.10;13.10;;;;;;;-1.76;82.90;101372.69;438825;1270;143105;-60
2022/02/27 04:02:00;;;;;;;24.70;15.30;;;;;;;-1.55;83.39;101382.77;443854;1271;143197;-60
2022/02/27 04:12:06;;;;;;;24.30;16.80;;;;;;;-1.29;83.65;101399.13;446639;1268;142546;-60
2022/02/27 04:22:12;;;;;;;22.30;15.00;;;;;;;-0.89;83.87;101400.85;447454;1270;142446;-59
2022/02/27 04:32:18;;;;;;;22.80;14.70;;;;;;;-0.64;83.77;101397.18;447422;1270;144001;-60
2022/02/27 04:42:24;;;;;;;23.30;15.50;;;;;;;-0.45;83.35;101396.19;446654;1270;143569;-61
2022/02/27 04:52:30;;;;;;;22.40;13.80;;;;;;;-0.30;82.97;101398.59;447376;1270;142843;-60
2022/02/27 05:02:36;;;;;;;22.70;14.70;;;;;;;-0.23;82.73;101398.83;447268;1271;144660;-60
2022/02/27 05:12:43;;;;;;;19.90;13.30;;;;;;;-0.25;82.59;101395.88;446638;1270;143819;-60
2022/02/27 05:22:50;;;;;;;21.10;12.70;;;;;;;-0.29;82.25;101405.30;447009;1270;144144;-61
2022/02/27 05:32:55;;;;;;;19.40;14.00;;;;;;;-0.33;82.26;101413.02;446056;1270;142763;-65
2022/02/27 05:43:01;;;;;;;24.80;14.00;;;;;;;-0.32;82.19;101419.39;438423;1270;142505;-60
2022/02/27 05:53:07;;;;;;;21.10;14.50;;;;;;;-0.32;82.10;101439.35;447335;1271;145410;-59
2022/02/27 06:03:15;;;;;;;20.60;12.00;;;;;;;-0.30;81.80;101449.36;446665;1270;142366;-59
2022/02/27 06:13:21;;;;;;;18.70;12.70;;;;;;;-0.28;81.50;101454.55;447051;1272;142920;-60
2022/02/27 06:23:27;;;;;;;18.80;12.90;;;;;;;-0.18;81.75;101458.09;439231;1273;143321;-59
2022/02/27 06:33:33;;;;;;;17.60;13.40;;;;;;;-0.02;81.59;101466.00;446355;1271;143404;-60
2022/02/27 06:43:41;;;;;;;21.40;13.40;;;;;;;0.11;81.31;101472.48;447202;1271;142742;-60
2022/02/27 06:53:47;;;;;;;23.50;15.60;;;;;;;0.17;81.21;101475.46;447118;1272;143680;-60
2022/02/27 07:03:53;;;;;;;26.10;12.30;;;;;;;0.27;80.76;101479.54;438750;1273;142169;-60
2022/02/27 07:13:59;;;;;;;23.70;13.80;;;;;;;0.33;81.02;101480.77;446678;1273;143400;-62
2022/02/27 07:24:06;;;;;;;20.90;14.60;;;;;;;0.42;80.76;101487.25;446363;1271;142547;-60
2022/02/27 07:34:12;;;;;;;;;;;;;;;0.52;80.51;101491.64;447010;1273;143692;-60
2022/02/27 07:44:18;;;;;;;21.10;12.90;;;;;;;0.54;80.41;101501.13;447199;1271;129291;-60
2022/02/27 07:54:25;;;;;;;16.80;11.60;;;;;;;0.86;80.23;101501.36;446234;1273;142241;-59
2022/02/27 08:04:30;;;;;;;20.10;14.40;;;;;;;1.28;79.65;101507.66;438416;1273;142521;-59
2022/02/27 08:14:36;;;;;;;21.70;14.40;;;;;;;1.38;79.24;101510.65;433551;1273;144067;-59
2022/02/27 08:24:42;;;;;;;24.30;13.90;;;;;;;1.49;78.78;101511.55;444167;1273;143091;-57
2022/02/27 08:34:48;;;;;;;16.30;12.00;;;;;;;1.51;78.44;101516.92;429909;1273;142565;-61
2022/02/27 08:44:54;;;;;;;17.80;12.30;;;;;;;1.56;78.30;101511.41;429980;1271;142519;-59
2022/02/27 08:54:59;;;;;;;19.20;12.60;;;;;;;1.85;77.99;101507.54;440985;1271;142025;-60
2022/02/27 09:05:07;;;;;;;19.60;12.90;;;;;;;2.01;77.44;101510.02;447045;1270;142949;-60
2022/02/27 09:15:14;;;;;;;19.90;13.60;;;;;;;1.83;77.12;101515.66;438801;1271;142326;-61
2022/02/27 09:25:18;;;;;;;;;;;;;;;1.73;77.25;101515.10;447256;1271;143780;-59
2022/02/27 09:35:44;;;;;;;22.70;13.00;;;;;;;1.64;76.96;101515.74;444803;1271;130608;-64
2022/02/27 09:45:51;;;;;;;19.60;13.30;;;;;;;1.66;76.90;101514.90;446591;1269;144689;-65
2022/02/27 09:55:57;;;;;;;16.00;10.20;;;;;;;1.73;76.78;101508.54;447196;1270;143541;-64
2022/02/27 10:06:05;;;;;;;23.90;14.80;;;;;;;2.32;76.85;101492.58;446423;1271;142997;-64
2022/02/27 10:16:12;;;;;;;22.50;15.30;;;;;;;2.66;75.76;101491.73;447264;1270;144254;-63
2022/02/27 10:26:28;;;;;;;21.90;14.10;;;;;;;2.52;75.39;101485.01;447403;1271;142365;-68
2022/02/27 10:36:35;;;;;;;22.90;15.00;;;;;;;2.62;75.09;101477.05;446262;1271;145473;-64
2022/02/27 10:46:41;;;;;;;22.30;15.50;;;;;;;3.03;74.54;101474.91;447164;1270;144780;-64
2022/02/27 10:56:48;;;;;;;21.20;15.10;;;;;;;3.25;73.93;101468.60;447026;1270;142985;-64
2022/02/27 11:06:54;;;;;;;27.30;16.80;;;;;;;3.66;73.23;101459.78;437207;1273;142934;-64
2022/02/27 11:17:01;;;;;;;24.20;16.30;;;;;;;3.83;72.90;101447.56;447195;1271;141920;-64
2022/02/27 11:27:08;;;;;;;21.90;14.10;;;;;;;3.68;72.42;101450.23;446543;1271;143937;-63
2022/02/27 11:37:14;;;;;;;18.50;13.40;;;;;;;3.88;72.45;101446.48;447255;1271;143577;-64
2022/02/27 11:47:21;;;;;;;20.70;12.60;;;;;;;4.01;71.39;101441.73;447049;1271;142528;-64
2022/02/27 11:57:30;;;;;;;23.40;16.20;;;;;;;4.06;70.98;101430.42;446502;1271;143293;-64
2022/02/27 12:08:07;;;;;;;30.90;19.80;;;;;;;3.97;70.44;101438.63;447368;1271;141681;-64
2022/02/27 12:18:23;;;;;;;31.30;20.60;;;;;;;3.85;70.50;101435.05;446578;1271;142406;-63
2022/02/27 12:28:57;;;;;;;26.90;15.50;;;;;;;3.55;70.81;101430.73;440846;1271;143844;-63
2022/02/27 12:39:06;;;;;;;26.40;15.10;;;;;;;3.41;70.53;101422.84;444932;1269;142536;-62
2022/02/27 12:59:37;;;;;;;15.30;12.60;;;;;;;2.85;70.52;101422.53;447274;1270;142775;-62
2022/02/27 13:09:45;;;;;;;;;;;;;;;2.54;70.71;101430.20;437549;1270;142515;-65
2022/02/27 13:19:49;;;;;;;;;;;;;;;2.34;71.20;101421.73;447370;1270;127947;-63
2022/02/27 13:29:58;;;;;;;18.50;10.20;;;;;;;2.55;70.88;101415.50;443136;1268;129199;-59
2022/02/27 13:40:08;;;;;;;17.70;12.70;;;;;;;2.78;70.58;101403.86;431179;1270;141791;-63
2022/02/27 13:50:22;;;;;;;20.40;11.90;;;;;;;3.02;70.41;101400.33;440642;1270;142286;-63
2022/02/27 14:00:28;;;;;;;12.30;9.60;;;;;;;3.41;69.76;101384.92;446521;1270;142457;-62
2022/02/27 14:10:36;;;;;;;13.90;9.60;;;;;;;3.47;69.49;101365.16;436720;1271;142340;-62
2022/02/27 14:20:41;;;;;;;15.80;9.40;;;;;;;3.55;68.87;101350.21;432748;1271;142400;-62
2022/02/27 14:30:48;;;;;;;13.50;7.90;;;;;;;3.38;68.55;101345.30;429721;1270;142356;-63
2022/02/27 14:40:54;;;;;;;14.50;9.90;;;;;;;3.30;68.66;101340.84;443344;1271;141480;-63
2022/02/27 14:50:59;;;;;;;11.30;9.10;;;;;;;3.08;68.49;101339.75;447230;1271;142240;-62
2022/02/27 15:01:07;;;;;;;19.00;10.00;;;;;;;2.76;68.64;101338.50;447175;1271;143612;-61
2022/02/27 15:11:13;;;;;;;16.80;9.10;;;;;;;2.55;68.59;101344.62;447240;1271;142941;-63
2022/02/27 15:21:19;;;;;;;12.80;7.80;;;;;;;2.32;68.80;101344.66;446217;1271;142803;-67
2022/02/27 15:31:25;;;;;;;11.30;8.80;;;;;;;2.15;69.04;101352.80;443373;1270;143914;-67
2022/02/27 15:41:31;;;;;;;6.70;5.10;;;;;;;1.72;68.39;101358.66;447452;1270;142681;-66
2022/02/27 15:51:38;;;;;;;10.00;6.80;;;;;;;1.29;67.96;101358.75;446529;1269;141658;-66
2022/02/27 16:01:46;;;;;;;9.90;7.80;;;;;;;0.94;68.02;101362.42;447233;1271;141738;-66
2022/02/27 16:11:53;;;;;;;10.90;6.90;;;;;;;0.66;68.02;101369.34;447270;1271;142034;-65
2022/02/27 16:21:59;;;;;;;11.00;7.80;;;;;;;0.32;68.10;101373.27;446651;1270;142580;-65
2022/02/27 16:32:06;;;;;;;15.10;9.90;;;;;;;-0.00;68.23;101377.49;447378;1270;144995;-66
2022/02/27 16:42:12;;;;;;;17.60;10.80;;;;;;;-0.34;68.22;101376.69;445039;1270;142967;-67
2022/02/27 16:52:18;;;;;;;18.90;12.20;;;;;;;-0.57;68.92;101387.27;445581;1270;144007;-66
2022/02/27 17:02:24;;;;;;;59.30;35.00;;;;;;;-0.68;69.11;101387.84;430284;1271;142014;-66
2022/02/27 17:12:30;;;;;;;38.10;20.50;;;;;;;-0.97;69.47;101377.55;446581;1270;142754;-67
2022/02/27 17:22:36;;;;;;;34.20;18.90;;;;;;;-1.30;69.93;101372.83;447243;1269;143553;-66
2022/02/27 17:32:43;;;;;;;34.30;15.80;;;;;;;-1.63;70.62;101366.16;447315;1271;142675;-67
2022/02/27 17:42:49;;;;;;;38.20;18.70;;;;;;;-1.93;71.02;101357.48;446579;1270;145805;-67
2022/02/27 17:52:55;;;;;;;29.30;16.80;;;;;;;-2.22;71.43;101346.52;438231;1270;144120;-67
2022/02/27 18:03:01;;;;;;;23.40;13.50;;;;;;;-2.49;72.11;101346.92;438337;1270;142351;-69
2022/02/27 18:13:08;;;;;;;27.30;12.80;;;;;;;-2.75;72.46;101350.23;447260;1270;142527;-69
2022/02/27 18:23:14;;;;;;;28.10;17.00;;;;;;;-2.98;72.99;101350.98;447261;1270;143270;-70
2022/02/27 18:33:20;;;;;;;29.70;19.40;;;;;;;-3.01;73.73;101343.55;446527;1269;144484;-69
2022/02/27 18:43:26;;;;;;;31.20;17.40;;;;;;;-2.63;73.65;101334.31;447199;1270;142550;-71
2022/02/27 18:53:36;;;;;;;30.20;15.10;;;;;;;-2.38;73.05;101324.14;447237;1271;141743;-70
2022/02/27 19:03:42;;;;;;;27.60;13.30;;;;;;;-2.17;72.13;101323.96;443480;1269;142779;-70
2022/02/27 19:13:48;;;;;;;13.60;7.30;;;;;;;-2.19;71.41;101332.34;432708;1271;141477;-70
2022/02/27 19:23:54;;;;;;;9.90;5.60;;;;;;;-2.16;70.92;101339.08;447192;1270;142777;-70
2022/02/27 19:34:00;;;;;;;6.80;5.20;;;;;;;-2.10;70.47;101335.41;446177;1270;141525;-70
2022/02/27 19:44:07;;;;;;;8.60;5.50;;;;;;;-2.07;70.10;101324.98;447294;1270;143823;-70
2022/02/27 19:54:13;;;;;;;17.80;7.80;;;;;;;-2.14;69.83;101327.11;446377;1270;142529;-69
2022/02/27 20:04:19;;;;;;;13.90;7.50;;;;;;;-2.08;69.51;101327.73;445426;1270;142548;-70
2022/02/27 20:14:25;;;;;;;11.40;6.00;;;;;;;-2.08;69.49;101333.71;439791;1270;141984;-70
2022/02/27 20:24:31;;;;;;;13.20;6.80;;;;;;;-2.15;69.44;101328.80;446319;1270;142429;-70
2022/02/27 20:34:36;;;;;;;11.00;6.70;;;;;;;-2.29;69.39;101330.98;443691;1272;142299;-69
2022/02/27 20:44:42;;;;;;;12.60;7.30;;;;;;;-2.34;69.44;101330.03;443202;1270;143224;-69
2022/02/27 20:54:49;;;;;;;14.60;7.30;;;;;;;-2.49;69.45;101332.02;435776;1270;141748;-68
2022/02/27 21:04:55;;;;;;;13.00;8.20;;;;;;;-2.62;69.62;101328.70;447043;1270;142710;-69
2022/02/27 21:15:01;;;;;;;13.10;7.40;;;;;;;-2.70;69.60;101334.89;446976;1271;142135;-69
2022/02/27 21:25:09;;;;;;;10.80;7.80;;;;;;;-2.70;69.73;101333.19;447230;1270;142029;-70
2022/02/27 21:35:17;;;;;;;11.10;6.70;;;;;;;-2.78;69.68;101337.48;447183;1270;143105;-70
2022/02/27 21:45:23;;;;;;;14.10;7.00;;;;;;;-2.82;69.79;101333.13;446603;1271;141872;-69
2022/02/27 21:55:29;;;;;;;15.50;8.30;;;;;;;-2.90;70.02;101331.59;447351;1268;143023;-69
2022/02/27 22:05:35;;;;;;;12.30;7.30;;;;;;;-2.99;70.03;101327.83;447217;1271;142135;-69
2022/02/27 22:15:41;;;;;;;14.00;7.20;;;;;;;-3.04;70.08;101321.55;446566;1270;142853;-69
2022/02/27 22:25:47;;;;;;;14.00;8.60;;;;;;;-3.05;70.24;101319.48;447186;1271;142692;-70
2022/02/27 22:36:04;;;;;;;17.80;10.20;;;;;;;-3.03;70.25;101328.76;447261;1271;142470;-66
2022/02/27 22:46:11;;;;;;;14.10;8.20;;;;;;;-3.02;70.23;101322.11;440984;1270;143195;-66
2022/02/27 22:56:17;;;;;;;11.90;7.90;;;;;;;-3.07;70.33;101317.36;447114;1271;144011;-66
2022/02/27 23:06:24;;;;;;;15.60;8.00;;;;;;;-3.10;70.31;101325.73;442804;1269;142349;-66
2022/02/27 23:16:31;;;;;;;22.20;9.70;;;;;;;-3.11;70.32;101325.36;438218;1271;142323;-66
2022/02/27 23:26:37;;;;;;;15.70;8.10;;;;;;;-3.17;70.18;101322.50;447131;1271;143342;-63
2022/02/27 23:36:43;;;;;;;13.30;7.40;;;;;;;-3.25;70.27;101315.65;446684;1270;143110;-64
2022/02/27 23:46:49;;;;;;;12.60;7.00;;;;;;;-3.31;70.38;101307.64;447410;1271;143991;-64
2022/02/27 23:56:55;;;;;;;15.70;7.80;;;;;;;-3.45;70.62;101301.36;447328;1270;142506;-63
